sensor_id;sensor_type;location;lat;lon;timestamp;pressure;altitude;pressure_sealevel;temperature;humidity
10476;BME280;26166;48.264;11.436;2023-07-22T00:01:43;96208.03;;;21.09;52.11
10476;BME280;26166;48.264;11.436;2023-07-22T00:04:44;96201.06;;;21.08;52.18
10476;BME280;26166;48.264;11.436;2023-07-22T00:07:44;96198.41;;;21.08;52.32
10476;BME280;26166;48.264;11.436;2023-07-22T00:10:44;96200.25;;;21.08;52.41
10476;BME280;26166;48.264;11.436;2023-07-22T00:13:45;96201.28;;;21.07;52.25
10476;BME280;26166;48.264;11.436;2023-07-22T00:16:45;96201.28;;;21.07;52.21
10476;BME280;26166;48.264;11.436;2023-07-22T00:19:45;96205.81;;;21.06;52.36
10476;BME280;26166;48.264;11.436;2023-07-22T00:22:45;96206.63;;;21.07;52.31
10476;BME280;26166;48.264;11.436;2023-07-22T00:25:48;96199.09;;;21.04;52.35
10476;BME280;26166;48.264;11.436;2023-07-22T00:28:48;96204.19;;;21.05;52.12
10476;BME280;26166;48.264;11.436;2023-07-22T00:31:48;96198.84;;;21.05;52.01
10476;BME280;26166;48.264;11.436;2023-07-22T00:34:49;96191.91;;;21.04;52.31
10476;BME280;26166;48.264;11.436;2023-07-22T00:37:49;96185.75;;;21.04;52.52
10476;BME280;26166;48.264;11.436;2023-07-22T00:40:49;96182.47;;;21.02;52.37
10476;BME280;26166;48.264;11.436;2023-07-22T00:43:49;96179.81;;;21.02;52.50
10476;BME280;26166;48.264;11.436;2023-07-22T00:46:49;96183.53;;;21.01;52.52
10476;BME280;26166;48.264;11.436;2023-07-22T00:49:53;96172.63;;;21.02;52.36
10476;BME280;26166;48.264;11.436;2023-07-22T00:52:54;96172.84;;;21.01;52.67
10476;BME280;26166;48.264;11.436;2023-07-22T00:55:54;96174.13;;;20.98;52.69
10476;BME280;26166;48.264;11.436;2023-07-22T00:58:55;96172.84;;;21.01;52.62
10476;BME280;26166;48.264;11.436;2023-07-22T01:01:55;96157.41;;;21.03;52.70
10476;BME280;26166;48.264;11.436;2023-07-22T01:04:55;96166.47;;;21.02;52.55
10476;BME280;26166;48.264;11.436;2023-07-22T01:07:55;96164.84;;;21.01;52.85
10476;BME280;26166;48.264;11.436;2023-07-22T01:10:56;96147.22;;;21.00;52.82
10476;BME280;26166;48.264;11.436;2023-07-22T01:13:56;96154.63;;;20.98;52.84
10476;BME280;26166;48.264;11.436;2023-07-22T01:17:00;96153.34;;;21.00;52.86
10476;BME280;26166;48.264;11.436;2023-07-22T01:20:00;96153.00;;;20.97;52.96
10476;BME280;26166;48.264;11.436;2023-07-22T01:23:01;96150.94;;;20.99;52.97
10476;BME280;26166;48.264;11.436;2023-07-22T01:26:01;96159.97;;;20.98;53.00
10476;BME280;26166;48.264;11.436;2023-07-22T01:29:05;96166.13;;;20.98;52.88
10476;BME280;26166;48.264;11.436;2023-07-22T01:32:05;96156.72;;;20.96;53.13
10476;BME280;26166;48.264;11.436;2023-07-22T01:35:06;96169.03;;;20.97;52.96
10476;BME280;26166;48.264;11.436;2023-07-22T01:38:07;96160.47;;;20.95;53.11
10476;BME280;26166;48.264;11.436;2023-07-22T01:41:08;96169.72;;;20.92;53.34
10476;BME280;26166;48.264;11.436;2023-07-22T01:44:08;96167.88;;;20.92;53.23
10476;BME280;26166;48.264;11.436;2023-07-22T01:47:09;96164.63;;;20.90;53.59
10476;BME280;26166;48.264;11.436;2023-07-22T01:50:09;96163.03;;;20.89;53.48
10476;BME280;26166;48.264;11.436;2023-07-22T01:53:10;96169.16;;;20.90;53.79
10476;BME280;26166;48.264;11.436;2023-07-22T01:56:10;96171.84;;;20.90;53.80
10476;BME280;26166;48.264;11.436;2023-07-22T01:59:10;96173.69;;;20.89;53.61
10476;BME280;26166;48.264;11.436;2023-07-22T02:02:10;96176.59;;;20.88;54.01
10476;BME280;26166;48.264;11.436;2023-07-22T02:05:10;96172.28;;;20.87;54.09
10476;BME280;26166;48.264;11.436;2023-07-22T02:08:11;96177.88;;;20.85;54.15
10476;BME280;26166;48.264;11.436;2023-07-22T02:11:11;96173.56;;;20.84;53.91
10476;BME280;26166;48.264;11.436;2023-07-22T02:14:11;96183.78;;;20.87;54.10
10476;BME280;26166;48.264;11.436;2023-07-22T02:17:12;96183.22;;;20.85;54.07
10476;BME280;26166;48.264;11.436;2023-07-22T02:20:13;96181.13;;;20.87;54.12
10476;BME280;26166;48.264;11.436;2023-07-22T02:23:13;96173.56;;;20.84;54.08
10476;BME280;26166;48.264;11.436;2023-07-22T02:26:13;96181.56;;;20.84;54.39
10476;BME280;26166;48.264;11.436;2023-07-22T02:29:13;96176.72;;;20.81;54.39
10476;BME280;26166;48.264;11.436;2023-07-22T02:32:13;96183.66;;;20.82;54.45
10476;BME280;26166;48.264;11.436;2023-07-22T02:35:14;96170.56;;;20.81;54.19
10476;BME280;26166;48.264;11.436;2023-07-22T02:38:14;96174.84;;;20.82;54.39
10476;BME280;26166;48.264;11.436;2023-07-22T02:41:14;96170.31;;;20.82;54.34
10476;BME280;26166;48.264;11.436;2023-07-22T02:44:14;96168.91;;;20.80;54.21
10476;BME280;26166;48.264;11.436;2023-07-22T02:47:14;96174.25;;;20.80;54.34
10476;BME280;26166;48.264;11.436;2023-07-22T02:50:14;96171.84;;;20.78;54.18
10476;BME280;26166;48.264;11.436;2023-07-22T02:53:15;96186.59;;;20.81;54.15
10476;BME280;26166;48.264;11.436;2023-07-22T02:56:15;96184.47;;;20.83;54.23
10476;BME280;26166;48.264;11.436;2023-07-22T02:59:15;96193.31;;;20.83;54.38
10476;BME280;26166;48.264;11.436;2023-07-22T03:02:15;96182.88;;;20.82;54.03
10476;BME280;26166;48.264;11.436;2023-07-22T03:05:15;96189.38;;;20.86;53.85
10476;BME280;26166;48.264;11.436;2023-07-22T03:08:16;96188.78;;;20.84;54.08
10476;BME280;26166;48.264;11.436;2023-07-22T03:11:17;96186.91;;;20.84;54.02
10476;BME280;26166;48.264;11.436;2023-07-22T03:14:17;96192.84;;;20.86;53.80
10476;BME280;26166;48.264;11.436;2023-07-22T03:17:18;96199.22;;;20.85;53.66
10476;BME280;26166;48.264;11.436;2023-07-22T03:20:18;96190.19;;;20.86;53.89
10476;BME280;26166;48.264;11.436;2023-07-22T03:23:18;96200.03;;;20.86;53.93
10476;BME280;26166;48.264;11.436;2023-07-22T03:26:19;96197.25;;;20.81;54.04
10476;BME280;26166;48.264;11.436;2023-07-22T03:29:19;96194.25;;;20.77;54.26
10476;BME280;26166;48.264;11.436;2023-07-22T03:32:22;96196.91;;;20.77;54.17
10476;BME280;26166;48.264;11.436;2023-07-22T03:35:23;96191.56;;;20.77;53.93
10476;BME280;26166;48.264;11.436;2023-07-22T03:38:23;96199.34;;;20.79;54.16
10476;BME280;26166;48.264;11.436;2023-07-22T03:41:24;96199.56;;;20.77;54.17
10476;BME280;26166;48.264;11.436;2023-07-22T03:44:24;96209.44;;;20.77;54.03
10476;BME280;26166;48.264;11.436;2023-07-22T03:47:26;96209.22;;;20.78;54.31
10476;BME280;26166;48.264;11.436;2023-07-22T03:50:26;96197.97;;;20.76;54.32
10476;BME280;26166;48.264;11.436;2023-07-22T03:53:27;96202.25;;;20.77;54.14
10476;BME280;26166;48.264;11.436;2023-07-22T03:56:27;96202.81;;;20.79;54.33
10476;BME280;26166;48.264;11.436;2023-07-22T03:59:27;96210.25;;;20.77;54.34
10476;BME280;26166;48.264;11.436;2023-07-22T04:02:28;96200.63;;;20.76;54.30
10476;BME280;26166;48.264;11.436;2023-07-22T04:05:28;96208.03;;;20.74;54.45
10476;BME280;26166;48.264;11.436;2023-07-22T04:08:28;96211.31;;;20.76;54.24
10476;BME280;26166;48.264;11.436;2023-07-22T04:11:29;96201.09;;;20.73;54.46
10476;BME280;26166;48.264;11.436;2023-07-22T04:14:29;96203.16;;;20.71;54.53
10476;BME280;26166;48.264;11.436;2023-07-22T04:17:29;96214.88;;;20.70;54.57
10476;BME280;26166;48.264;11.436;2023-07-22T04:20:29;96215.94;;;20.69;54.85
10476;BME280;26166;48.264;11.436;2023-07-22T04:23:29;96216.50;;;20.71;54.79
10476;BME280;26166;48.264;11.436;2023-07-22T04:26:32;96230.44;;;20.73;54.65
10476;BME280;26166;48.264;11.436;2023-07-22T04:29:33;96229.41;;;20.74;54.73
10476;BME280;26166;48.264;11.436;2023-07-22T04:32:33;96230.81;;;20.77;54.86
10476;BME280;26166;48.264;11.436;2023-07-22T04:35:33;96219.31;;;20.76;55.01
10476;BME280;26166;48.264;11.436;2023-07-22T04:38:36;96225.22;;;20.78;55.20
10476;BME280;26166;48.264;11.436;2023-07-22T04:41:36;96220.13;;;20.77;55.26
10476;BME280;26166;48.264;11.436;2023-07-22T04:44:36;96220.94;;;20.77;55.23
10476;BME280;26166;48.264;11.436;2023-07-22T04:47:37;96217.66;;;20.75;55.52
10476;BME280;26166;48.264;11.436;2023-07-22T04:50:38;96221.16;;;20.76;55.48
10476;BME280;26166;48.264;11.436;2023-07-22T04:53:40;96223.00;;;20.75;55.45
10476;BME280;26166;48.264;11.436;2023-07-22T04:56:41;96220.34;;;20.75;55.85
10476;BME280;26166;48.264;11.436;2023-07-22T04:59:44;96216.84;;;20.75;55.58
10476;BME280;26166;48.264;11.436;2023-07-22T05:02:44;96216.03;;;20.74;55.86
10476;BME280;26166;48.264;11.436;2023-07-22T05:05:48;96216.84;;;20.75;55.67
10476;BME280;26166;48.264;11.436;2023-07-22T05:08:48;96229.84;;;20.71;55.98
10476;BME280;26166;48.264;11.436;2023-07-22T05:11:48;96222.44;;;20.73;55.80
10476;BME280;26166;48.264;11.436;2023-07-22T05:14:49;96236.22;;;20.70;55.75
10476;BME280;26166;48.264;11.436;2023-07-22T05:17:49;96238.91;;;20.70;55.89
10476;BME280;26166;48.264;11.436;2023-07-22T05:20:49;96238.91;;;20.70;55.87
10476;BME280;26166;48.264;11.436;2023-07-22T05:23:50;96238.91;;;20.70;56.09
10476;BME280;26166;48.264;11.436;2023-07-22T05:26:50;96240.53;;;20.71;55.92
10476;BME280;26166;48.264;11.436;2023-07-22T05:29:54;96247.97;;;20.69;56.35
10476;BME280;26166;48.264;11.436;2023-07-22T05:32:54;96244.25;;;20.70;56.23
10476;BME280;26166;48.264;11.436;2023-07-22T05:35:54;96247.97;;;20.69;56.05
10476;BME280;26166;48.264;11.436;2023-07-22T05:38:54;96248.66;;;20.64;56.19
10476;BME280;26166;48.264;11.436;2023-07-22T05:41:54;96248.41;;;20.66;56.30
10476;BME280;26166;48.264;11.436;2023-07-22T05:44:55;96253.75;;;20.66;56.33
10476;BME280;26166;48.264;11.436;2023-07-22T05:47:55;96251.09;;;20.66;56.09
10476;BME280;26166;48.264;11.436;2023-07-22T05:50:56;96237.75;;;20.66;56.22
10476;BME280;26166;48.264;11.436;2023-07-22T05:53:56;96242.03;;;20.67;56.18
10476;BME280;26166;48.264;11.436;2023-07-22T05:56:57;96241.22;;;20.66;56.34
10476;BME280;26166;48.264;11.436;2023-07-22T05:59:57;96238.53;;;20.66;56.14
10476;BME280;26166;48.264;11.436;2023-07-22T06:02:58;96239.84;;;20.64;56.38
10476;BME280;26166;48.264;11.436;2023-07-22T06:05:58;96244.56;;;20.62;56.21
10476;BME280;26166;48.264;11.436;2023-07-22T06:08:58;96245.19;;;20.64;55.98
10476;BME280;26166;48.264;11.436;2023-07-22T06:11:58;96247.03;;;20.63;55.75
10476;BME280;26166;48.264;11.436;2023-07-22T06:14:58;96236.13;;;20.65;55.83
10476;BME280;26166;48.264;11.436;2023-07-22T06:17:59;96245.19;;;20.64;55.45
10476;BME280;26166;48.264;11.436;2023-07-22T06:20:59;96252.38;;;20.63;55.46
10476;BME280;26166;48.264;11.436;2023-07-22T06:23:59;96250.97;;;20.61;55.12
10476;BME280;26166;48.264;11.436;2023-07-22T06:27:00;96256.31;;;20.61;55.21
10476;BME280;26166;48.264;11.436;2023-07-22T06:30:00;96260.00;;;20.60;54.96
10476;BME280;26166;48.264;11.436;2023-07-22T06:33:00;96255.50;;;20.60;54.72
10476;BME280;26166;48.264;11.436;2023-07-22T06:36:00;96257.34;;;20.60;54.71
10476;BME280;26166;48.264;11.436;2023-07-22T06:39:01;96258.97;;;20.61;54.58
10476;BME280;26166;48.264;11.436;2023-07-22T06:42:01;96258.16;;;20.60;54.58
10476;BME280;26166;48.264;11.436;2023-07-22T06:45:01;96272.31;;;20.61;54.31
10476;BME280;26166;48.264;11.436;2023-07-22T06:48:02;96268.59;;;20.62;54.43
10476;BME280;26166;48.264;11.436;2023-07-22T06:51:02;96277.19;;;20.64;54.28
10476;BME280;26166;48.264;11.436;2023-07-22T06:54:03;96281.50;;;20.65;53.75
10476;BME280;26166;48.264;11.436;2023-07-22T06:57:03;96275.91;;;20.66;53.94
10476;BME280;26166;48.264;11.436;2023-07-22T07:00:06;96275.69;;;20.68;53.66
10476;BME280;26166;48.264;11.436;2023-07-22T07:03:06;96273.03;;;20.68;53.84
10476;BME280;26166;48.264;11.436;2023-07-22T07:06:06;96271.16;;;20.69;53.52
10476;BME280;26166;48.264;11.436;2023-07-22T07:09:06;96273.59;;;20.70;53.41
10476;BME280;26166;48.264;11.436;2023-07-22T07:12:07;96282.41;;;20.71;53.31
10476;BME280;26166;48.264;11.436;2023-07-22T07:15:07;96278.69;;;20.72;53.42
10476;BME280;26166;48.264;11.436;2023-07-22T07:18:08;96274.19;;;20.72;53.22
10476;BME280;26166;48.264;11.436;2023-07-22T07:21:08;96278.69;;;20.72;53.21
10476;BME280;26166;48.264;11.436;2023-07-22T07:24:09;96277.88;;;20.71;53.18
10476;BME280;26166;48.264;11.436;2023-07-22T07:27:09;96277.06;;;20.71;53.02
10476;BME280;26166;48.264;11.436;2023-07-22T07:30:09;96284.03;;;20.72;52.87
10476;BME280;26166;48.264;11.436;2023-07-22T07:33:10;96278.94;;;20.70;52.81
10476;BME280;26166;48.264;11.436;2023-07-22T07:36:10;96270.94;;;20.70;52.79
10476;BME280;26166;48.264;11.436;2023-07-22T07:39:10;96269.88;;;20.71;52.66
10476;BME280;26166;48.264;11.436;2023-07-22T07:42:10;96269.66;;;20.73;52.34
10476;BME280;26166;48.264;11.436;2023-07-22T07:45:10;96264.53;;;20.71;52.21
10476;BME280;26166;48.264;11.436;2023-07-22T07:48:10;96281.16;;;20.73;51.65
10476;BME280;26166;48.264;11.436;2023-07-22T07:51:12;96276.88;;;20.72;51.64
10476;BME280;26166;48.264;11.436;2023-07-22T07:54:12;96271.53;;;20.72;51.55
10476;BME280;26166;48.264;11.436;2023-07-22T07:57:12;96271.53;;;20.72;51.17
10476;BME280;26166;48.264;11.436;2023-07-22T08:00:12;96276.38;;;20.75;51.03
10476;BME280;26166;48.264;11.436;2023-07-22T08:03:13;96273.72;;;20.75;50.62
10476;BME280;26166;48.264;11.436;2023-07-22T08:06:13;96273.16;;;20.73;50.56
10476;BME280;26166;48.264;11.436;2023-07-22T08:09:13;96277.44;;;20.74;50.45
10476;BME280;26166;48.264;11.436;2023-07-22T08:12:18;96284.41;;;20.75;49.96
10476;BME280;26166;48.264;11.436;2023-07-22T08:15:19;96271.28;;;20.74;49.90
10476;BME280;26166;48.264;11.436;2023-07-22T08:18:19;96276.38;;;20.75;50.10
10476;BME280;26166;48.264;11.436;2023-07-22T08:21:19;96283.38;;;20.76;49.97
10476;BME280;26166;48.264;11.436;2023-07-22T08:24:20;96274.31;;;20.77;49.95
10476;BME280;26166;48.264;11.436;2023-07-22T08:27:20;96283.94;;;20.78;50.27
10476;BME280;26166;48.264;11.436;2023-07-22T08:30:20;96283.72;;;20.80;49.92
10476;BME280;26166;48.264;11.436;2023-07-22T08:33:21;96298.22;;;20.84;49.92
10476;BME280;26166;48.264;11.436;2023-07-22T08:36:22;96282.19;;;20.84;49.45
10476;BME280;26166;48.264;11.436;2023-07-22T08:39:22;96286.72;;;20.83;49.85
10476;BME280;26166;48.264;11.436;2023-07-22T08:42:23;96282.56;;;20.87;49.65
10476;BME280;26166;48.264;11.436;2023-07-22T08:45:23;96291.16;;;20.89;49.53
10476;BME280;26166;48.264;11.436;2023-07-22T08:48:31;96277.56;;;20.91;49.26
10476;BME280;26166;48.264;11.436;2023-07-22T08:51:32;96282.69;;;20.92;48.59
10476;BME280;26166;48.264;11.436;2023-07-22T08:54:33;96274.66;;;20.92;48.26
10476;BME280;26166;48.264;11.436;2023-07-22T08:57:36;96285.34;;;20.92;48.09
10476;BME280;26166;48.264;11.436;2023-07-22T09:00:38;96280.00;;;20.92;48.58
10476;BME280;26166;48.264;11.436;2023-07-22T09:03:39;96282.78;;;20.98;48.01
10476;BME280;26166;48.264;11.436;2023-07-22T09:06:39;96274.09;;;21.02;47.74
10476;BME280;26166;48.264;11.436;2023-07-22T09:09:41;96284.06;;;21.07;47.37
10476;BME280;26166;48.264;11.436;2023-07-22T09:12:42;96276.19;;;21.12;47.24
10476;BME280;26166;48.264;11.436;2023-07-22T09:15:42;96276.31;;;21.17;46.69
10476;BME280;26166;48.264;11.436;2023-07-22T09:18:42;96266.31;;;21.24;46.65
10476;BME280;26166;48.264;11.436;2023-07-22T09:21:42;96274.00;;;21.32;46.01
10476;BME280;26166;48.264;11.436;2023-07-22T09:24:44;96271.78;;;21.41;45.02
10476;BME280;26166;48.264;11.436;2023-07-22T09:27:48;96272.69;;;21.47;45.58
10476;BME280;26166;48.264;11.436;2023-07-22T09:30:48;96269.56;;;21.50;45.69
10476;BME280;26166;48.264;11.436;2023-07-22T09:33:52;96258.41;;;21.53;45.25
10476;BME280;26166;48.264;11.436;2023-07-22T09:36:57;96265.13;;;21.55;44.83
10476;BME280;26166;48.264;11.436;2023-07-22T09:40:00;96255.03;;;21.57;44.89
10476;BME280;26166;48.264;11.436;2023-07-22T09:43:01;96261.75;;;21.60;44.31
10476;BME280;26166;48.264;11.436;2023-07-22T09:46:07;96250.84;;;21.61;44.46
10476;BME280;26166;48.264;11.436;2023-07-22T09:49:09;96256.75;;;21.63;44.19
10476;BME280;26166;48.264;11.436;2023-07-22T09:52:09;96261.03;;;21.64;43.62
10476;BME280;26166;48.264;11.436;2023-07-22T09:55:12;96256.53;;;21.65;44.10
10476;BME280;26166;48.264;11.436;2023-07-22T09:58:12;96254.88;;;21.64;44.16
10476;BME280;26166;48.264;11.436;2023-07-22T10:01:14;96254.06;;;21.63;43.90
10476;BME280;26166;48.264;11.436;2023-07-22T10:04:17;96245.84;;;21.65;44.17
10476;BME280;26166;48.264;11.436;2023-07-22T10:07:18;96244.78;;;21.66;43.98
10476;BME280;26166;48.264;11.436;2023-07-22T10:10:20;96252.81;;;21.66;44.34
10476;BME280;26166;48.264;11.436;2023-07-22T10:13:20;96243.72;;;21.67;44.34
10476;BME280;26166;48.264;11.436;2023-07-22T10:16:21;96244.53;;;21.67;44.61
10476;BME280;26166;48.264;11.436;2023-07-22T10:19:21;96235.47;;;21.69;44.55
10476;BME280;26166;48.264;11.436;2023-07-22T10:22:23;96242.66;;;21.68;44.44
10476;BME280;26166;48.264;11.436;2023-07-22T10:25:24;96236.28;;;21.69;44.23
10476;BME280;26166;48.264;11.436;2023-07-22T10:28:25;96229.31;;;21.68;44.08
10476;BME280;26166;48.264;11.436;2023-07-22T10:31:29;96227.44;;;21.69;43.74
10476;BME280;26166;48.264;11.436;2023-07-22T10:34:29;96229.09;;;21.70;43.92
10476;BME280;26166;48.264;11.436;2023-07-22T10:37:30;96233.72;;;21.74;44.13
10476;BME280;26166;48.264;11.436;2023-07-22T10:40:31;96229.53;;;21.78;44.09
10476;BME280;26166;48.264;11.436;2023-07-22T10:43:32;96230.44;;;21.84;43.44
10476;BME280;26166;48.264;11.436;2023-07-22T10:46:36;96229.72;;;21.88;43.39
10476;BME280;26166;48.264;11.436;2023-07-22T10:49:42;96229.00;;;21.93;43.32
10476;BME280;26166;48.264;11.436;2023-07-22T10:52:45;96218.84;;;21.95;43.09
10476;BME280;26166;48.264;11.436;2023-07-22T10:56:03;96217.59;;;21.98;43.20
10476;BME280;26166;48.264;11.436;2023-07-22T10:59:04;96215.47;;;22.00;43.40
10476;BME280;26166;48.264;11.436;2023-07-22T11:02:07;96219.19;;;21.99;43.64
10476;BME280;26166;48.264;11.436;2023-07-22T11:05:10;96217.59;;;21.98;43.19
10476;BME280;26166;48.264;11.436;2023-07-22T11:08:11;96213.84;;;21.99;43.41
10476;BME280;26166;48.264;11.436;2023-07-22T11:11:11;96196.19;;;21.98;43.28
10476;BME280;26166;48.264;11.436;2023-07-22T11:14:15;96197.00;;;21.98;43.36
10476;BME280;26166;48.264;11.436;2023-07-22T11:17:16;96198.84;;;21.98;42.87
10476;BME280;26166;48.264;11.436;2023-07-22T11:20:17;96203.16;;;21.99;42.84
10476;BME280;26166;48.264;11.436;2023-07-22T11:23:17;96191.41;;;22.00;42.30
10476;BME280;26166;48.264;11.436;2023-07-22T11:26:18;96185.81;;;22.01;42.03
10476;BME280;26166;48.264;11.436;2023-07-22T11:29:18;96186.03;;;22.00;42.26
10476;BME280;26166;48.264;11.436;2023-07-22T11:32:19;96180.94;;;21.98;42.64
10476;BME280;26166;48.264;11.436;2023-07-22T11:35:21;96177.72;;;21.96;42.63
10476;BME280;26166;48.264;11.436;2023-07-22T11:38:21;96176.06;;;21.95;42.10
10476;BME280;26166;48.264;11.436;2023-07-22T11:41:22;96164.56;;;21.95;41.79
10476;BME280;26166;48.264;11.436;2023-07-22T11:44:26;96171.53;;;21.96;42.14
10476;BME280;26166;48.264;11.436;2023-07-22T11:47:30;96166.44;;;21.94;41.96
10476;BME280;26166;48.264;11.436;2023-07-22T11:50:33;96156.00;;;21.92;42.24
10476;BME280;26166;48.264;11.436;2023-07-22T11:53:33;96157.84;;;21.92;41.85
10476;BME280;26166;48.264;11.436;2023-07-22T11:56:33;96149.56;;;21.94;41.85
10476;BME280;26166;48.264;11.436;2023-07-22T11:59:38;96158.66;;;21.92;42.35
10476;BME280;26166;48.264;11.436;2023-07-22T12:02:38;96149.03;;;21.91;42.46
10476;BME280;26166;48.264;11.436;2023-07-22T12:05:41;96137.50;;;21.91;42.75
10476;BME280;26166;48.264;11.436;2023-07-22T12:08:45;96145.75;;;21.89;42.40
10476;BME280;26166;48.264;11.436;2023-07-22T12:11:45;96139.59;;;21.89;42.67
10476;BME280;26166;48.264;11.436;2023-07-22T12:14:48;96143.91;;;21.90;42.64
10476;BME280;26166;48.264;11.436;2023-07-22T12:17:50;96145.75;;;21.89;42.43
10476;BME280;26166;48.264;11.436;2023-07-22T12:20:51;96131.59;;;21.89;42.76
10476;BME280;26166;48.264;11.436;2023-07-22T12:23:52;96134.50;;;21.87;42.51
10476;BME280;26166;48.264;11.436;2023-07-22T12:26:53;96132.88;;;21.86;42.25
10476;BME280;26166;48.264;11.436;2023-07-22T12:29:53;96129.38;;;21.86;42.34
10476;BME280;26166;48.264;11.436;2023-07-22T12:32:53;96128.56;;;21.85;42.37
10476;BME280;26166;48.264;11.436;2023-07-22T12:35:54;96133.13;;;21.85;42.44
10476;BME280;26166;48.264;11.436;2023-07-22T12:38:54;96122.41;;;21.85;42.39
10476;BME280;26166;48.264;11.436;2023-07-22T12:41:54;96118.69;;;21.86;42.59
10476;BME280;26166;48.264;11.436;2023-07-22T12:44:54;96116.25;;;21.84;42.33
10476;BME280;26166;48.264;11.436;2023-07-22T12:47:55;96108.25;;;21.84;42.41
10476;BME280;26166;48.264;11.436;2023-07-22T12:50:55;96106.38;;;21.85;42.18
10476;BME280;26166;48.264;11.436;2023-07-22T12:53:55;96101.84;;;21.85;42.30
10476;BME280;26166;48.264;11.436;2023-07-22T12:56:56;96115.22;;;21.85;41.88
10476;BME280;26166;48.264;11.436;2023-07-22T12:59:56;96114.16;;;21.86;40.79
10476;BME280;26166;48.264;11.436;2023-07-22T13:02:56;96100.56;;;21.88;41.03
10476;BME280;26166;48.264;11.436;2023-07-22T13:05:57;96098.69;;;21.88;41.17
10476;BME280;26166;48.264;11.436;2023-07-22T13:08:57;96103.22;;;21.88;40.67
10476;BME280;26166;48.264;11.436;2023-07-22T13:11:57;96095.22;;;21.88;39.43
10476;BME280;26166;48.264;11.436;2023-07-22T13:14:57;96104.59;;;21.90;40.13
10476;BME280;26166;48.264;11.436;2023-07-22T13:17:58;96083.19;;;21.90;40.25
10476;BME280;26166;48.264;11.436;2023-07-22T13:20:58;96088.56;;;21.90;40.48
10476;BME280;26166;48.264;11.436;2023-07-22T13:23:58;96084.25;;;21.89;39.83
10476;BME280;26166;48.264;11.436;2023-07-22T13:26:58;96089.59;;;21.89;40.14
10476;BME280;26166;48.264;11.436;2023-07-22T13:29:58;96086.94;;;21.89;40.14
10476;BME280;26166;48.264;11.436;2023-07-22T13:32:59;96081.59;;;21.89;40.43
10476;BME280;26166;48.264;11.436;2023-07-22T13:35:59;96088.00;;;21.88;40.48
10476;BME280;26166;48.264;11.436;2023-07-22T13:38:59;96088.47;;;21.85;40.46
10476;BME280;26166;48.264;11.436;2023-07-22T13:41:59;96088.47;;;21.85;40.79
10476;BME280;26166;48.264;11.436;2023-07-22T13:44:59;96085.00;;;21.85;40.78
10476;BME280;26166;48.264;11.436;2023-07-22T13:47:59;96084.19;;;21.84;41.10
10476;BME280;26166;48.264;11.436;2023-07-22T13:50:59;96086.84;;;21.84;40.86
10476;BME280;26166;48.264;11.436;2023-07-22T13:54:00;96093.81;;;21.85;40.09
10476;BME280;26166;48.264;11.436;2023-07-22T13:57:00;96085.78;;;21.85;39.69
10476;BME280;26166;48.264;11.436;2023-07-22T14:00:00;96084.75;;;21.86;39.51
10476;BME280;26166;48.264;11.436;2023-07-22T14:03:00;96080.78;;;21.89;39.03
10476;BME280;26166;48.264;11.436;2023-07-22T14:06:00;96075.19;;;21.90;39.10
10476;BME280;26166;48.264;11.436;2023-07-22T14:09:01;96070.16;;;21.94;38.87
10476;BME280;26166;48.264;11.436;2023-07-22T14:12:01;96068.28;;;21.95;38.91
10476;BME280;26166;48.264;11.436;2023-07-22T14:15:02;96077.13;;;21.95;39.59
10476;BME280;26166;48.264;11.436;2023-07-22T14:18:04;96068.56;;;21.93;39.53
10476;BME280;26166;48.264;11.436;2023-07-22T14:21:04;96073.31;;;21.91;39.85
10476;BME280;26166;48.264;11.436;2023-07-22T14:24:04;96077.03;;;21.90;39.99
10476;BME280;26166;48.264;11.436;2023-07-22T14:27:04;96074.38;;;21.90;40.26
10476;BME280;26166;48.264;11.436;2023-07-22T14:30:05;96074.63;;;21.88;40.42
10476;BME280;26166;48.264;11.436;2023-07-22T14:33:06;96078.34;;;21.87;40.01
10476;BME280;26166;48.264;11.436;2023-07-22T14:36:06;96075.91;;;21.86;40.50
10476;BME280;26166;48.264;11.436;2023-07-22T14:39:06;96076.16;;;21.84;40.56
10476;BME280;26166;48.264;11.436;2023-07-22T14:42:08;96073.75;;;21.83;41.18
10476;BME280;26166;48.264;11.436;2023-07-22T14:45:08;96068.63;;;21.81;41.19
10476;BME280;26166;48.264;11.436;2023-07-22T14:48:08;96074.22;;;21.80;41.40
10476;BME280;26166;48.264;11.436;2023-07-22T14:51:08;96070.16;;;21.77;41.21
10476;BME280;26166;48.264;11.436;2023-07-22T14:54:09;96077.34;;;21.77;40.79
10476;BME280;26166;48.264;11.436;2023-07-22T14:57:09;96068.28;;;21.78;40.80
10476;BME280;26166;48.264;11.436;2023-07-22T15:00:09;96076.09;;;21.79;40.88
10476;BME280;26166;48.264;11.436;2023-07-22T15:03:10;96068.06;;;21.79;40.58
10476;BME280;26166;48.264;11.436;2023-07-22T15:06:10;96069.69;;;21.80;40.33
10476;BME280;26166;48.264;11.436;2023-07-22T15:09:11;96063.28;;;21.81;40.27
10476;BME280;26166;48.264;11.436;2023-07-22T15:12:11;96061.19;;;21.83;40.48
10476;BME280;26166;48.264;11.436;2023-07-22T15:15:11;96055.66;;;21.90;40.01
10476;BME280;26166;48.264;11.436;2023-07-22T15:18:12;96058.75;;;21.99;39.83
10476;BME280;26166;48.264;11.436;2023-07-22T15:21:12;96045.22;;;22.05;39.68
10476;BME280;26166;48.264;11.436;2023-07-22T15:24:12;96046.09;;;22.11;39.69
10476;BME280;26166;48.264;11.436;2023-07-22T15:27:12;96051.00;;;22.14;39.54
10476;BME280;26166;48.264;11.436;2023-07-22T15:30:12;96048.88;;;22.16;39.41
10476;BME280;26166;48.264;11.436;2023-07-22T15:33:13;96055.84;;;22.17;39.60
10476;BME280;26166;48.264;11.436;2023-07-22T15:36:13;96047.00;;;22.16;39.75
10476;BME280;26166;48.264;11.436;2023-07-22T15:39:13;96049.94;;;22.15;39.64
10476;BME280;26166;48.264;11.436;2023-07-22T15:42:13;96044.84;;;22.13;40.07
10476;BME280;26166;48.264;11.436;2023-07-22T15:45:14;96045.06;;;22.12;40.11